createdAt,value
2022-09-21T00:00:04.772Z,7.98
2022-09-21T00:01:04.829Z,7.98
2022-09-21T00:02:04.761Z,7.97
2022-09-21T00:03:04.757Z,7.95
2022-09-21T00:04:04.724Z,7.95
2022-09-21T00:05:04.737Z,7.94
2022-09-21T00:06:04.706Z,7.94
2022-09-21T00:07:04.697Z,7.93
2022-09-21T00:08:04.687Z,7.93
2022-09-21T00:09:04.717Z,7.91
2022-09-21T00:10:04.733Z,7.93
2022-09-21T00:11:04.657Z,7.90
2022-09-21T00:12:04.709Z,7.91
2022-09-21T00:13:04.656Z,7.90
2022-09-21T00:14:04.802Z,7.91
2022-09-21T00:15:04.697Z,7.90
2022-09-21T00:16:04.707Z,7.91
2022-09-21T00:17:04.804Z,7.90
2022-09-21T00:18:04.717Z,7.90
2022-09-21T00:19:04.697Z,7.88
2022-09-21T00:20:04.827Z,7.87
2022-09-21T00:21:04.681Z,7.87
2022-09-21T00:22:04.777Z,7.85
2022-09-21T00:23:04.638Z,7.85
2022-09-21T00:24:04.672Z,7.83
2022-09-21T00:25:04.617Z,7.82
2022-09-21T00:26:04.621Z,7.83
2022-09-21T00:27:04.693Z,7.82
2022-09-21T00:28:04.697Z,7.82
2022-09-21T00:29:04.617Z,7.82
2022-09-21T00:30:04.620Z,7.79
2022-09-21T00:31:04.685Z,7.79
2022-09-21T00:32:04.815Z,7.75
2022-09-21T00:33:04.646Z,7.75
2022-09-21T00:34:04.689Z,7.73
2022-09-21T00:35:04.637Z,7.73
2022-09-21T00:36:04.689Z,7.75
2022-09-21T00:37:04.361Z,7.73
2022-09-21T00:38:04.365Z,7.72
2022-09-21T00:39:04.357Z,7.70
2022-09-21T00:40:04.502Z,7.70
2022-09-21T00:41:04.317Z,7.69
2022-09-21T00:42:04.298Z,7.70
2022-09-21T00:43:04.309Z,7.69
2022-09-21T00:44:04.273Z,7.69
2022-09-21T00:45:04.297Z,7.66
2022-09-21T00:46:04.303Z,7.63
2022-09-21T00:47:04.257Z,7.66
2022-09-21T00:48:04.265Z,7.63
2022-09-21T00:49:04.249Z,7.63
2022-09-21T00:50:04.245Z,7.67
2022-09-21T00:51:04.213Z,7.66
2022-09-21T00:52:04.192Z,7.63
2022-09-21T00:53:04.205Z,7.61
2022-09-21T00:54:04.186Z,7.63
2022-09-21T00:55:04.165Z,7.63
2022-09-21T00:56:04.141Z,7.63
2022-09-21T00:57:04.186Z,7.63
2022-09-21T00:58:04.119Z,7.66
2022-09-21T00:59:04.145Z,7.61
2022-09-21T01:00:04.106Z,7.60
2022-09-21T01:01:04.161Z,7.61
2022-09-21T01:02:04.144Z,7.60
2022-09-21T01:03:04.125Z,7.58
2022-09-21T01:04:04.158Z,7.58
2022-09-21T01:05:04.186Z,7.56
2022-09-21T01:06:04.246Z,7.54
2022-09-21T01:07:04.237Z,7.51
2022-09-21T01:08:04.285Z,7.51
2022-09-21T01:09:04.286Z,7.50
2022-09-21T01:10:04.002Z,7.51
2022-09-21T01:11:04.102Z,7.50
2022-09-21T01:12:03.970Z,7.50
2022-09-21T01:13:03.986Z,7.50
2022-09-21T01:14:03.966Z,7.48
2022-09-21T01:15:03.941Z,7.48
2022-09-21T01:16:03.961Z,7.47
2022-09-21T01:17:03.958Z,7.48
2022-09-21T01:18:03.898Z,7.47
2022-09-21T01:19:03.906Z,7.45
2022-09-21T01:20:03.879Z,7.45
2022-09-21T01:21:04.110Z,7.43
2022-09-21T01:22:03.850Z,7.43
2022-09-21T01:23:03.847Z,7.43
2022-09-21T01:24:03.852Z,7.43
2022-09-21T01:25:03.845Z,7.42
2022-09-21T01:26:03.800Z,7.40
2022-09-21T01:27:03.842Z,7.40
2022-09-21T01:28:03.808Z,7.40
2022-09-21T01:29:03.810Z,7.40
2022-09-21T01:30:03.759Z,7.39
2022-09-21T01:31:03.770Z,7.42
2022-09-21T01:32:03.790Z,7.42
2022-09-21T01:33:03.726Z,7.40
2022-09-21T01:34:03.754Z,7.42
2022-09-21T01:35:03.730Z,7.42
2022-09-21T01:36:03.714Z,7.40
2022-09-21T01:37:03.695Z,7.40
2022-09-21T01:38:03.726Z,7.39
2022-09-21T01:39:03.698Z,7.39
2022-09-21T01:40:03.751Z,7.39
2022-09-21T01:41:03.678Z,7.40
2022-09-21T01:42:03.642Z,7.40
2022-09-21T01:43:03.638Z,7.39
2022-09-21T01:44:03.606Z,7.39
2022-09-21T01:45:03.638Z,7.40
2022-09-21T01:46:03.708Z,7.40
2022-09-21T01:47:03.595Z,7.40
2022-09-21T01:48:03.600Z,7.39
2022-09-21T01:49:03.562Z,7.40
2022-09-21T01:50:03.580Z,7.39
2022-09-21T01:51:03.527Z,7.39
2022-09-21T01:52:03.527Z,7.39
2022-09-21T01:53:03.557Z,7.40
2022-09-21T01:54:03.520Z,7.36
2022-09-21T01:55:03.486Z,7.38
2022-09-21T01:56:03.539Z,7.39
2022-09-21T01:57:03.467Z,7.36
2022-09-21T01:58:03.463Z,7.36
2022-09-21T01:59:03.479Z,7.36
2022-09-21T02:00:03.447Z,7.36
2022-09-21T02:01:03.482Z,7.36
2022-09-21T02:02:03.449Z,7.36
2022-09-21T02:03:03.386Z,7.35
2022-09-21T02:04:03.398Z,7.33
2022-09-21T02:05:03.390Z,7.33
2022-09-21T02:06:03.387Z,7.31
2022-09-21T02:07:03.370Z,7.32
2022-09-21T02:08:03.364Z,7.29
2022-09-21T02:09:03.343Z,7.28
2022-09-21T02:10:03.339Z,7.25
2022-09-21T02:11:03.331Z,7.24
2022-09-21T02:12:03.351Z,7.24
2022-09-21T02:13:03.311Z,7.24
2022-09-21T02:14:03.312Z,7.25
2022-09-21T02:15:03.279Z,7.24
2022-09-21T02:16:03.301Z,7.25
2022-09-21T02:17:03.259Z,7.24
2022-09-21T02:18:03.247Z,7.23
2022-09-21T02:19:03.245Z,7.24
2022-09-21T02:20:03.208Z,7.24
2022-09-21T02:21:03.200Z,7.24
2022-09-21T02:22:03.192Z,7.23
2022-09-21T02:23:03.169Z,7.21
2022-09-21T02:24:03.167Z,7.21
2022-09-21T02:25:03.168Z,7.21
2022-09-21T02:26:03.148Z,7.21
2022-09-21T02:27:03.128Z,7.21
2022-09-21T02:28:03.148Z,7.21
2022-09-21T02:29:03.915Z,7.18
2022-09-21T02:30:03.124Z,7.20
2022-09-21T02:31:03.126Z,7.17
2022-09-21T02:32:03.129Z,7.17
2022-09-21T02:33:03.072Z,7.15
2022-09-21T02:34:03.080Z,7.14
2022-09-21T02:35:03.072Z,7.15
2022-09-21T02:36:03.064Z,7.14
2022-09-21T02:37:03.048Z,7.15
2022-09-21T02:38:03.041Z,7.13
2022-09-21T02:39:03.016Z,7.14
2022-09-21T02:40:03.033Z,7.13
2022-09-21T02:41:03.040Z,7.13
2022-09-21T02:42:02.974Z,7.13
2022-09-21T02:43:03.080Z,7.11
2022-09-21T02:44:02.951Z,7.11
2022-09-21T02:45:02.946Z,7.13
2022-09-21T02:46:02.948Z,7.14
2022-09-21T02:47:02.900Z,7.13
2022-09-21T02:48:02.928Z,7.15
2022-09-21T02:49:02.908Z,7.17
2022-09-21T02:50:02.882Z,7.17
2022-09-21T02:51:02.848Z,7.13
2022-09-21T02:52:02.868Z,7.11
2022-09-21T02:53:02.847Z,7.10
2022-09-21T02:54:02.856Z,7.10
2022-09-21T02:55:02.816Z,7.11
2022-09-21T02:56:02.810Z,7.13
2022-09-21T02:57:02.800Z,7.14
2022-09-21T02:58:02.819Z,7.17
2022-09-21T02:59:02.792Z,7.17
2022-09-21T03:00:02.770Z,7.18
2022-09-21T03:01:02.831Z,7.20
2022-09-21T03:02:02.789Z,7.21
2022-09-21T03:03:02.720Z,7.23
2022-09-21T03:04:02.719Z,7.23
2022-09-21T03:05:02.762Z,7.23
2022-09-21T03:06:02.727Z,7.23
2022-09-21T03:07:02.672Z,7.24
2022-09-21T03:08:02.688Z,7.23
2022-09-21T03:09:02.661Z,7.21
2022-09-21T03:10:02.680Z,7.18
2022-09-21T03:11:58.356Z,7.17
2022-09-21T03:12:58.264Z,7.11
2022-09-21T03:13:58.256Z,7.10
2022-09-21T03:14:58.264Z,7.06
2022-09-21T03:15:58.329Z,7.06
2022-09-21T03:16:58.216Z,7.05
2022-09-21T03:17:58.216Z,7.03
2022-09-21T03:18:58.196Z,7.02
2022-09-21T03:19:58.206Z,7.00
2022-09-21T03:20:59.144Z,6.96
2022-09-21T03:21:58.177Z,6.96
2022-09-21T03:22:58.144Z,6.95
2022-09-21T03:23:58.158Z,6.95
2022-09-21T03:24:58.124Z,6.92
2022-09-21T03:25:58.224Z,6.92
2022-09-21T03:26:58.117Z,6.92
2022-09-21T03:27:58.104Z,6.89
2022-09-21T03:28:58.092Z,6.89
2022-09-21T03:30:01.969Z,6.89
2022-09-21T03:30:58.109Z,6.88
2022-09-21T03:31:58.080Z,6.89
2022-09-21T03:32:58.054Z,6.88
2022-09-21T03:33:58.045Z,6.88
2022-09-21T03:34:58.005Z,6.88
2022-09-21T03:35:58.006Z,6.88
2022-09-21T03:36:58.004Z,6.87
2022-09-21T03:37:57.999Z,6.85
2022-09-21T03:38:57.985Z,6.85
2022-09-21T03:39:57.970Z,6.85
2022-09-21T03:40:58.250Z,6.85
2022-09-21T03:41:57.946Z,6.84
2022-09-21T03:42:57.929Z,6.82
2022-09-21T03:43:57.931Z,6.82
2022-09-21T03:44:57.899Z,6.82
2022-09-21T03:45:57.958Z,6.79
2022-09-21T03:46:57.886Z,6.81
2022-09-21T03:47:57.876Z,6.82
2022-09-21T03:48:57.864Z,6.82
2022-09-21T03:49:57.864Z,6.79
2022-09-21T03:50:57.843Z,6.81
2022-09-21T03:51:57.866Z,6.79
2022-09-21T03:52:57.814Z,6.78
2022-09-21T03:53:57.814Z,6.79
2022-09-21T03:54:57.806Z,6.79
2022-09-21T03:55:57.786Z,6.78
2022-09-21T03:56:57.766Z,6.79
2022-09-21T03:57:57.774Z,6.81
2022-09-21T03:58:57.849Z,6.84
2022-09-21T03:59:57.746Z,6.81
2022-09-21T04:00:57.733Z,6.84
2022-09-21T04:01:57.726Z,6.84
2022-09-21T04:02:57.760Z,6.85
2022-09-21T04:03:57.694Z,6.84
2022-09-21T04:04:57.698Z,6.84
2022-09-21T04:05:57.678Z,6.81
2022-09-21T04:06:57.665Z,6.78
2022-09-21T04:07:57.665Z,6.75
2022-09-21T04:08:57.645Z,6.74
2022-09-21T04:09:57.633Z,6.72
2022-09-21T04:10:57.625Z,6.70
2022-09-21T04:11:57.613Z,6.69
2022-09-21T04:12:57.625Z,6.63
2022-09-21T04:13:57.581Z,6.60
2022-09-21T04:14:57.577Z,6.62
2022-09-21T04:15:57.643Z,6.63
2022-09-21T04:16:57.555Z,6.64
2022-09-21T04:17:57.545Z,6.63
2022-09-21T04:18:57.516Z,6.63
2022-09-21T04:19:57.533Z,6.62
2022-09-21T04:20:57.506Z,6.57
2022-09-21T04:21:57.505Z,6.54
2022-09-21T04:22:57.479Z,6.51
2022-09-21T04:23:57.474Z,6.46
2022-09-21T04:24:57.473Z,6.44
2022-09-21T04:25:57.476Z,6.42
2022-09-21T04:26:57.425Z,6.39
2022-09-21T04:27:57.435Z,6.38
2022-09-21T04:28:57.517Z,6.38
2022-09-21T04:29:57.407Z,6.38
2022-09-21T04:30:57.418Z,6.35
2022-09-21T04:31:57.388Z,6.35
2022-09-21T04:32:57.365Z,6.33
2022-09-21T04:33:57.365Z,6.33
2022-09-21T04:34:57.365Z,6.31
2022-09-21T04:35:57.334Z,6.31
2022-09-21T04:36:57.313Z,6.30
2022-09-21T04:37:57.315Z,6.28
2022-09-21T04:38:57.293Z,6.27
2022-09-21T04:39:57.306Z,6.28
2022-09-21T04:40:57.404Z,6.31
2022-09-21T04:41:57.267Z,6.35
2022-09-21T04:42:57.243Z,6.39
2022-09-21T04:43:57.309Z,6.44
2022-09-21T04:44:57.237Z,6.48
2022-09-21T04:45:57.264Z,6.52
2022-09-21T04:46:57.205Z,6.56
2022-09-21T04:48:04.423Z,6.57
2022-09-21T04:48:57.183Z,6.56
2022-09-21T04:49:57.183Z,6.52
2022-09-21T04:50:57.184Z,6.51
2022-09-21T04:51:57.167Z,6.49
2022-09-21T04:52:57.147Z,6.48
2022-09-21T04:53:57.140Z,6.45
2022-09-21T04:54:57.118Z,6.41
2022-09-21T04:55:57.136Z,6.38
2022-09-21T04:56:57.115Z,6.36
2022-09-21T04:57:57.108Z,6.36
2022-09-21T04:58:57.143Z,6.35
2022-09-21T04:59:57.088Z,6.35
2022-09-21T05:00:57.084Z,6.36
2022-09-21T05:01:57.055Z,6.38
2022-09-21T05:02:57.047Z,6.39
2022-09-21T05:03:57.035Z,6.39
2022-09-21T05:04:57.011Z,6.39
2022-09-21T05:05:57.022Z,6.38
2022-09-21T05:06:57.016Z,6.35
2022-09-21T05:07:56.996Z,6.33
2022-09-21T05:08:56.968Z,6.28
2022-09-21T05:09:56.964Z,6.27
2022-09-21T05:10:56.948Z,6.22
2022-09-21T05:11:56.997Z,6.20
2022-09-21T05:12:56.924Z,6.20
2022-09-21T05:13:56.951Z,6.17
2022-09-21T05:14:56.903Z,6.16
2022-09-21T05:15:56.931Z,6.12
2022-09-21T05:16:56.915Z,6.09
2022-09-21T05:17:56.888Z,6.08
2022-09-21T05:18:56.856Z,6.08
2022-09-21T05:19:56.849Z,6.08
2022-09-21T05:20:56.853Z,6.07
2022-09-21T05:21:56.844Z,6.07
2022-09-21T05:22:56.828Z,6.07
2022-09-21T05:23:56.796Z,6.09
2022-09-21T05:24:56.785Z,6.12
2022-09-21T05:25:56.777Z,6.16
2022-09-21T05:26:56.776Z,6.19
2022-09-21T05:27:56.756Z,6.26
2022-09-21T05:28:56.752Z,6.30
2022-09-21T05:29:56.748Z,6.33
2022-09-21T05:31:16.574Z,6.35
2022-09-21T05:31:57.996Z,6.38
2022-09-21T05:32:56.713Z,6.38
2022-09-21T05:33:56.700Z,6.38
2022-09-21T05:34:56.676Z,6.39
2022-09-21T05:35:56.677Z,6.39
2022-09-21T05:36:56.656Z,6.38
2022-09-21T05:37:56.656Z,6.41
2022-09-21T05:38:56.617Z,6.42
2022-09-21T05:39:56.625Z,6.41
2022-09-21T05:40:56.649Z,6.41
2022-09-21T05:41:56.600Z,6.39
2022-09-21T05:42:56.617Z,6.38
2022-09-21T05:43:56.592Z,6.35
2022-09-21T05:44:56.569Z,6.33
2022-09-21T05:45:56.608Z,6.31
2022-09-21T05:46:56.580Z,6.31
2022-09-21T05:47:56.614Z,6.33
2022-09-21T05:48:56.648Z,6.33
2022-09-21T05:49:56.589Z,6.35
2022-09-21T05:50:56.737Z,6.36
2022-09-21T05:51:56.717Z,6.39
2022-09-21T05:52:56.755Z,6.39
2022-09-21T05:53:56.777Z,6.39
2022-09-21T05:54:56.526Z,6.36
2022-09-21T05:55:56.489Z,6.33
2022-09-21T05:56:56.426Z,6.31
2022-09-21T05:57:56.464Z,6.31
2022-09-21T05:58:56.438Z,6.33
2022-09-21T05:59:56.413Z,6.35
2022-09-21T06:00:56.441Z,6.35
2022-09-21T06:01:56.390Z,6.36
2022-09-21T06:02:56.367Z,6.39
2022-09-21T06:03:56.400Z,6.42
2022-09-21T06:04:56.356Z,6.45
2022-09-21T06:05:56.338Z,6.49
2022-09-21T06:06:56.317Z,6.51
2022-09-21T06:07:56.328Z,6.52
2022-09-21T06:08:56.308Z,6.56
2022-09-21T06:09:56.512Z,6.57
2022-09-21T06:10:56.277Z,6.60
2022-09-21T06:11:56.278Z,6.57
2022-09-21T06:12:56.246Z,6.59
2022-09-21T06:13:56.247Z,6.60
2022-09-21T06:14:56.269Z,6.62
2022-09-21T06:15:56.261Z,6.64
2022-09-21T06:16:56.266Z,6.69
2022-09-21T06:17:56.197Z,6.74
2022-09-21T06:18:56.186Z,6.74
2022-09-21T06:19:56.217Z,6.75
2022-09-21T06:20:56.153Z,6.77
2022-09-21T06:21:57.605Z,6.78
2022-09-21T06:22:56.133Z,6.82
2022-09-21T06:23:56.126Z,6.84
2022-09-21T06:24:56.141Z,6.84
2022-09-21T06:25:58.618Z,6.85
2022-09-21T06:26:56.094Z,6.85
2022-09-21T06:27:56.105Z,6.87
2022-09-21T06:28:56.106Z,6.87
2022-09-21T06:29:56.665Z,6.87
2022-09-21T06:30:56.122Z,6.88
2022-09-21T06:31:56.067Z,6.88
2022-09-21T06:32:56.025Z,6.88
2022-09-21T06:33:56.033Z,6.88
2022-09-21T06:34:55.994Z,6.89
2022-09-21T06:35:56.007Z,6.92
2022-09-21T06:36:56.006Z,6.92
2022-09-21T06:37:55.977Z,6.93
2022-09-21T06:38:55.957Z,6.92
2022-09-21T06:39:55.951Z,6.95
2022-09-21T06:40:55.937Z,6.96
2022-09-21T06:41:56.177Z,6.97
2022-09-21T06:42:55.927Z,7.02
2022-09-21T06:43:55.913Z,7.03
2022-09-21T06:44:55.906Z,7.07
2022-09-21T06:45:55.980Z,7.14
2022-09-21T06:46:55.910Z,7.18
2022-09-21T06:47:55.847Z,7.28
2022-09-21T06:48:55.856Z,7.36
2022-09-21T06:49:55.834Z,7.42
2022-09-21T06:50:55.830Z,7.53
2022-09-21T06:51:55.814Z,7.58
2022-09-21T06:52:55.814Z,7.67
2022-09-21T06:53:55.805Z,7.70
2022-09-21T06:54:55.785Z,7.73
2022-09-21T06:55:55.758Z,7.75
2022-09-21T06:56:59.812Z,7.77
2022-09-21T06:57:55.734Z,7.82
2022-09-21T06:58:55.758Z,7.82
2022-09-21T06:59:55.734Z,7.87
2022-09-21T07:00:55.815Z,7.93
2022-09-21T07:01:55.846Z,7.95
2022-09-21T07:02:55.686Z,8.01
2022-09-21T07:03:55.722Z,8.06
2022-09-21T07:04:55.686Z,8.09
2022-09-21T07:05:55.649Z,8.13
2022-09-21T07:06:55.651Z,8.16
2022-09-21T07:07:55.638Z,8.18
2022-09-21T07:10:15.915Z,8.27
2022-09-21T07:10:56.606Z,8.30
2022-09-21T07:11:55.582Z,8.34
2022-09-21T07:12:55.587Z,8.38
2022-09-21T07:13:55.624Z,8.42
2022-09-21T07:14:55.558Z,8.48
2022-09-21T07:15:55.555Z,8.58
2022-09-21T07:16:55.534Z,8.64
2022-09-21T07:18:05.439Z,8.70
2022-09-21T07:18:57.021Z,8.76
2022-09-21T07:19:55.526Z,8.78
2022-09-21T07:20:55.539Z,8.82
2022-09-21T07:21:55.474Z,8.85
2022-09-21T07:22:55.486Z,8.87
2022-09-21T07:23:55.468Z,8.91
2022-09-21T07:24:55.447Z,8.92
2022-09-21T07:25:55.435Z,8.95
2022-09-21T07:26:55.446Z,8.99
2022-09-21T07:27:55.394Z,9.03
2022-09-21T07:28:55.468Z,9.06
2022-09-21T07:29:55.379Z,9.08
2022-09-21T07:30:55.414Z,9.11
2022-09-21T07:31:55.398Z,9.18
2022-09-21T07:32:55.486Z,9.19
2022-09-21T07:33:55.328Z,9.21
2022-09-21T07:34:55.355Z,9.25
2022-09-21T07:35:55.316Z,9.28
2022-09-21T07:36:55.318Z,9.32
2022-09-21T07:37:55.295Z,9.34
2022-09-21T07:38:55.290Z,9.36
2022-09-21T07:39:55.275Z,9.40
2022-09-21T07:40:55.259Z,9.43
2022-09-21T07:41:55.267Z,9.48
2022-09-21T07:42:55.291Z,9.50
2022-09-21T07:43:55.297Z,9.51
2022-09-21T07:45:03.903Z,9.56
2022-09-21T07:45:56.293Z,9.59
2022-09-21T07:46:55.196Z,9.64
2022-09-21T07:47:55.195Z,9.68
2022-09-21T07:48:55.167Z,9.73
2022-09-21T07:49:55.167Z,9.74
2022-09-21T07:50:55.147Z,9.76
2022-09-21T07:51:55.131Z,9.77
2022-09-21T07:52:55.200Z,9.80
2022-09-21T07:53:55.115Z,9.86
2022-09-21T07:54:55.112Z,9.87
2022-09-21T07:55:55.099Z,9.92
2022-09-21T07:56:55.087Z,9.94
2022-09-21T07:57:55.077Z,9.98
2022-09-21T07:58:55.186Z,10.02
2022-09-21T07:59:55.057Z,10.04
2022-09-21T08:00:55.094Z,10.12
2022-09-21T08:01:55.112Z,10.15
2022-09-21T08:02:55.035Z,10.19
2022-09-21T08:03:55.067Z,10.19
2022-09-21T08:04:55.027Z,10.19
2022-09-21T08:05:55.059Z,10.25
2022-09-21T08:06:55.060Z,10.30
2022-09-21T08:07:55.040Z,10.34
2022-09-21T08:08:57.850Z,10.38
2022-09-21T08:09:55.060Z,10.41
2022-09-21T08:10:55.015Z,10.46
2022-09-21T08:11:55.100Z,10.53
2022-09-21T08:12:55.024Z,10.59
2022-09-21T08:13:55.143Z,10.67
2022-09-21T08:14:54.983Z,10.68
2022-09-21T08:15:55.085Z,10.72
2022-09-21T08:16:54.940Z,10.82
2022-09-21T08:17:54.871Z,10.92
2022-09-21T08:18:55.287Z,11.04
2022-09-21T08:19:54.915Z,11.08
2022-09-21T08:20:54.942Z,11.22
2022-09-21T08:21:57.667Z,11.35
2022-09-21T08:22:54.783Z,11.44
2022-09-21T08:23:54.787Z,11.51
2022-09-21T08:24:54.788Z,11.60
2022-09-21T08:25:54.752Z,11.65
2022-09-21T08:26:54.739Z,11.75
2022-09-21T08:27:54.764Z,11.88
2022-09-21T08:28:54.869Z,11.90
2022-09-21T08:29:54.700Z,12.02
2022-09-21T08:30:54.699Z,12.25
2022-09-21T08:31:54.763Z,12.43
2022-09-21T08:32:54.676Z,12.54
2022-09-21T08:33:54.672Z,12.58
2022-09-21T08:34:54.656Z,12.62
2022-09-21T08:35:54.621Z,12.49
2022-09-21T08:36:55.850Z,12.65
2022-09-21T08:37:54.623Z,12.79
2022-09-21T08:38:54.709Z,12.94
2022-09-21T08:39:54.592Z,13.12
2022-09-21T08:40:54.587Z,13.22
2022-09-21T08:41:54.586Z,13.46
2022-09-21T08:42:54.560Z,13.77
2022-09-21T08:43:54.540Z,13.95
2022-09-21T08:44:54.539Z,14.00
2022-09-21T08:45:54.518Z,13.99
2022-09-21T08:46:54.593Z,14.03
2022-09-21T08:47:54.501Z,14.05
2022-09-21T08:48:54.528Z,14.08
2022-09-21T08:49:54.472Z,14.14
2022-09-21T08:50:54.468Z,13.93
2022-09-21T08:51:54.460Z,13.72
2022-09-21T08:52:54.480Z,13.65
2022-09-21T08:53:54.428Z,13.83
2022-09-21T08:54:54.418Z,13.97
2022-09-21T08:55:54.733Z,14.15
2022-09-21T08:57:04.875Z,14.36
2022-09-21T08:57:55.540Z,14.55
2022-09-21T08:58:54.475Z,14.78
2022-09-21T08:59:54.360Z,14.77
2022-09-21T09:00:54.375Z,14.85
2022-09-21T09:01:54.398Z,15.00
2022-09-21T09:02:54.406Z,15.14
2022-09-21T09:03:54.334Z,15.28
2022-09-21T09:04:54.312Z,15.42
2022-09-21T09:05:54.316Z,15.57
2022-09-21T09:06:54.280Z,15.68
2022-09-21T09:07:54.260Z,15.65
2022-09-21T09:08:54.321Z,15.61
2022-09-21T09:09:54.246Z,15.62
2022-09-21T09:10:54.248Z,15.59
2022-09-21T09:11:54.237Z,15.52
2022-09-21T09:12:54.232Z,15.47
2022-09-21T09:13:54.206Z,15.46
2022-09-21T09:14:54.277Z,15.51
2022-09-21T09:15:54.201Z,15.47
2022-09-21T09:16:54.281Z,15.37
2022-09-21T09:17:54.333Z,15.51
2022-09-21T09:18:54.393Z,15.79
2022-09-21T09:19:54.345Z,15.95
2022-09-21T09:20:54.233Z,16.01
2022-09-21T09:21:54.249Z,16.09
2022-09-21T09:22:54.264Z,16.10
2022-09-21T09:23:54.225Z,16.12
2022-09-21T09:24:54.257Z,16.08
2022-09-21T09:25:54.224Z,16.05
2022-09-21T09:26:54.573Z,16.09
2022-09-21T09:27:54.268Z,16.21
2022-09-21T09:28:54.314Z,16.33
2022-09-21T09:29:54.237Z,16.39
2022-09-21T09:30:54.193Z,16.24
2022-09-21T09:31:54.162Z,16.12
2022-09-21T09:32:54.009Z,16.09
2022-09-21T09:33:53.986Z,16.05
2022-09-21T09:34:53.985Z,16.21
2022-09-21T09:35:53.957Z,16.31
2022-09-21T09:36:58.769Z,16.43
2022-09-21T09:37:54.948Z,16.57
2022-09-21T09:38:53.928Z,16.76
2022-09-21T09:39:53.917Z,16.94
2022-09-21T09:40:53.909Z,17.05
2022-09-21T09:41:53.887Z,17.15
2022-09-21T09:42:53.897Z,17.22
2022-09-21T09:43:53.888Z,17.27
2022-09-21T09:44:53.881Z,17.31
2022-09-21T09:45:53.832Z,17.26
2022-09-21T09:46:53.878Z,17.05
2022-09-21T09:47:53.840Z,16.75
2022-09-21T09:48:54.398Z,16.65
2022-09-21T09:49:53.805Z,16.78
2022-09-21T09:50:53.789Z,16.89
2022-09-21T09:51:53.789Z,16.96
2022-09-21T09:52:53.769Z,16.94
2022-09-21T09:53:53.741Z,16.86
2022-09-21T09:54:53.752Z,16.90
2022-09-21T09:55:53.721Z,17.04
2022-09-21T09:56:53.729Z,17.16
2022-09-21T09:57:53.759Z,17.34
2022-09-21T09:58:53.690Z,17.45
2022-09-21T09:59:54.688Z,17.59
2022-09-21T10:00:53.681Z,17.78
2022-09-21T10:01:53.713Z,17.94
2022-09-21T10:02:53.678Z,18.05
2022-09-21T10:03:53.649Z,18.18
2022-09-21T10:04:53.638Z,18.37
2022-09-21T10:05:53.618Z,18.40
2022-09-21T10:06:53.610Z,18.41
2022-09-21T10:07:53.608Z,18.26
2022-09-21T10:08:53.629Z,17.76
2022-09-21T10:09:53.570Z,17.12
2022-09-21T10:10:53.562Z,16.84
2022-09-21T10:11:53.542Z,16.78
2022-09-21T10:12:53.569Z,16.89
2022-09-21T10:13:53.531Z,17.11
2022-09-21T10:14:53.514Z,17.31
2022-09-21T10:15:53.531Z,17.54
2022-09-21T10:16:53.493Z,17.72
2022-09-21T10:17:53.591Z,17.90
2022-09-21T10:18:53.482Z,17.79
2022-09-21T10:19:53.450Z,17.74
2022-09-21T10:20:53.450Z,17.64
2022-09-21T10:21:53.434Z,17.70
2022-09-21T10:22:53.454Z,17.82
2022-09-21T10:23:54.231Z,17.64
2022-09-21T10:24:53.409Z,17.56
2022-09-21T10:25:53.381Z,17.56
2022-09-21T10:26:53.381Z,17.78
2022-09-21T10:27:53.361Z,17.80
2022-09-21T10:28:53.409Z,17.39
2022-09-21T10:29:53.375Z,17.16
2022-09-21T10:30:53.446Z,17.04
2022-09-21T10:31:53.414Z,17.05
2022-09-21T10:32:53.395Z,17.19
2022-09-21T10:33:53.473Z,17.33
2022-09-21T10:34:53.454Z,17.48
2022-09-21T10:35:53.474Z,17.60
2022-09-21T10:36:53.486Z,17.70
2022-09-21T10:37:53.254Z,17.78
2022-09-21T10:38:53.247Z,17.87
2022-09-21T10:39:53.238Z,17.86
2022-09-21T10:40:53.250Z,17.82
2022-09-21T10:41:53.202Z,17.74
2022-09-21T10:42:53.206Z,17.70
2022-09-21T10:43:53.189Z,17.70
2022-09-21T10:44:53.271Z,17.67
2022-09-21T10:45:53.236Z,17.64
2022-09-21T10:46:53.262Z,17.64
2022-09-21T10:47:53.374Z,17.68
2022-09-21T10:48:53.137Z,17.72
2022-09-21T10:49:53.154Z,17.71
2022-09-21T10:50:53.107Z,17.70
2022-09-21T10:51:53.095Z,17.64
2022-09-21T10:52:53.110Z,17.57
2022-09-21T10:53:54.447Z,17.52
2022-09-21T10:54:53.082Z,17.46
2022-09-21T10:56:11.758Z,17.24
2022-09-21T10:56:54.080Z,17.04
2022-09-21T10:57:53.026Z,16.79
2022-09-21T10:58:53.022Z,16.66
2022-09-21T10:59:53.022Z,16.57
2022-09-21T11:00:53.024Z,16.51
2022-09-21T11:01:53.084Z,16.50
2022-09-21T11:02:53.028Z,16.56
2022-09-21T11:03:52.970Z,16.58
2022-09-21T11:04:52.966Z,16.64
2022-09-21T11:05:52.980Z,16.68
2022-09-21T11:06:52.931Z,16.79
2022-09-21T11:07:52.943Z,16.86
2022-09-21T11:08:52.930Z,16.94
2022-09-21T11:09:52.911Z,17.02
2022-09-21T11:10:52.881Z,17.09
2022-09-21T11:11:52.879Z,17.14
2022-09-21T11:12:52.850Z,17.16
2022-09-21T11:13:52.863Z,17.19
2022-09-21T11:14:52.842Z,17.24
2022-09-21T11:15:52.942Z,17.27
2022-09-21T11:16:52.848Z,17.34
2022-09-21T11:17:52.846Z,17.44
2022-09-21T11:18:52.791Z,17.48
2022-09-21T11:19:52.782Z,17.51
2022-09-21T11:20:52.770Z,17.48
2022-09-21T11:21:52.763Z,17.44
2022-09-21T11:22:57.233Z,17.26
2022-09-21T11:23:52.742Z,17.22
2022-09-21T11:24:52.736Z,17.15
2022-09-21T11:25:52.764Z,17.14
2022-09-21T11:26:52.703Z,17.19
2022-09-21T11:27:52.755Z,17.14
2022-09-21T11:28:52.724Z,17.08
2022-09-21T11:29:52.871Z,17.01
2022-09-21T11:30:52.725Z,16.93
2022-09-21T11:31:52.665Z,16.90
2022-09-21T11:32:52.635Z,16.86
2022-09-21T11:33:52.643Z,16.78
2022-09-21T11:34:52.635Z,16.72
2022-09-21T11:35:52.697Z,16.60
2022-09-21T11:36:52.583Z,16.50
2022-09-21T11:37:52.683Z,16.43
2022-09-21T11:38:52.578Z,16.39
2022-09-21T11:39:52.567Z,16.36
2022-09-21T11:40:52.545Z,16.33
2022-09-21T11:41:52.549Z,16.29
2022-09-21T11:42:52.527Z,16.21
2022-09-21T11:43:52.535Z,16.23
2022-09-21T11:44:52.499Z,16.23
2022-09-21T11:45:52.510Z,16.26
2022-09-21T11:46:52.469Z,16.29
2022-09-21T11:47:52.479Z,16.32
2022-09-21T11:48:52.468Z,16.36
2022-09-21T11:50:03.068Z,16.36
2022-09-21T11:50:53.429Z,16.39
2022-09-21T11:51:55.916Z,16.36
2022-09-21T11:52:53.399Z,16.29
2022-09-21T11:53:52.427Z,16.16
2022-09-21T11:54:52.379Z,16.09
2022-09-21T11:55:52.379Z,16.00
2022-09-21T11:56:52.359Z,15.95
2022-09-21T11:57:54.921Z,15.95
2022-09-21T11:58:53.061Z,15.97
2022-09-21T11:59:52.683Z,15.98
2022-09-21T12:00:52.314Z,16.02
2022-09-21T12:01:52.337Z,16.08
2022-09-21T12:02:52.628Z,16.12
2022-09-21T12:03:52.299Z,16.15
2022-09-21T12:04:52.275Z,16.09
2022-09-21T12:05:52.267Z,16.08
2022-09-21T12:06:52.247Z,16.04
2022-09-21T12:07:52.248Z,16.08
2022-09-21T12:08:52.263Z,16.09
2022-09-21T12:09:52.228Z,16.09
2022-09-21T12:10:52.191Z,16.10
2022-09-21T12:11:52.200Z,16.15
2022-09-21T12:12:52.188Z,16.15
2022-09-21T12:13:52.223Z,16.16
2022-09-21T12:14:52.213Z,16.15
2022-09-21T12:15:52.156Z,16.15
2022-09-21T12:16:52.154Z,16.15
2022-09-21T12:17:52.140Z,16.17
2022-09-21T12:18:52.220Z,16.15
2022-09-21T12:19:52.127Z,16.15
2022-09-21T12:20:52.124Z,16.15
2022-09-21T12:21:52.119Z,16.15
2022-09-21T12:22:52.144Z,16.17
2022-09-21T12:23:52.183Z,16.20
2022-09-21T12:24:52.227Z,16.16
2022-09-21T12:25:52.211Z,16.17
2022-09-21T12:26:52.204Z,16.20
2022-09-21T12:27:52.212Z,16.20
2022-09-21T12:28:52.215Z,16.21
2022-09-21T12:29:52.267Z,16.26
2022-09-21T12:30:52.307Z,16.28
2022-09-21T12:31:52.324Z,16.29
2022-09-21T12:32:52.084Z,16.32
2022-09-21T12:33:51.974Z,16.36
2022-09-21T12:34:51.964Z,16.42
2022-09-21T12:36:52.550Z,16.51
2022-09-21T12:37:51.945Z,16.58
2022-09-21T12:38:51.944Z,16.66
2022-09-21T12:39:51.896Z,16.78
2022-09-21T12:40:52.660Z,16.94
2022-09-21T12:41:51.856Z,17.16
2022-09-21T12:42:51.836Z,17.31
2022-09-21T12:43:51.837Z,17.49
2022-09-21T12:44:51.854Z,17.79
2022-09-21T12:45:51.931Z,18.13
2022-09-21T12:46:53.432Z,18.34
2022-09-21T12:47:51.897Z,18.38
2022-09-21T12:48:51.856Z,18.44
2022-09-21T12:49:52.018Z,18.60
2022-09-21T12:50:51.916Z,18.58
2022-09-21T12:51:51.920Z,18.62
2022-09-21T12:52:51.921Z,18.66
2022-09-21T12:53:51.936Z,18.74
2022-09-21T12:54:51.991Z,18.75
2022-09-21T12:55:52.065Z,18.89
2022-09-21T12:56:52.036Z,19.02
2022-09-21T12:58:14.734Z,19.07
2022-09-21T12:58:52.896Z,19.18
2022-09-21T12:59:51.980Z,19.11
2022-09-21T13:00:52.070Z,19.00
2022-09-21T13:01:56.446Z,18.81
2022-09-21T13:02:52.611Z,18.66
2022-09-21T13:03:52.105Z,18.63
2022-09-21T13:04:51.992Z,18.68
2022-09-21T13:05:51.617Z,18.81
2022-09-21T13:06:51.602Z,18.90
2022-09-21T13:07:51.584Z,19.08
2022-09-21T13:08:51.553Z,19.21
2022-09-21T13:09:51.548Z,19.29
2022-09-21T13:10:54.987Z,19.29